Nearby METAR Reports

This page may be slow to load as it queries the National Weather Service for data.

KBIS - Bismarck, North Dakota, USA
Distance from station: S 10mi, 15km
Updated: Mon, 18-Jun-2018 3:52am CDT
Clear
Clear
 Wind from WNW
Wind: WNW 3 mph , 6 km/h
Temperature: 52°F , 11°C
Dew Point: 52°F , 11°C
Humidity: 100%
Barometer: 30.10 inHg , 1019.3 hPa
Clouds: Clear
Visibility: 10 miles , 16 km
2018/06/18 08:52 KBIS 180852Z AUTO 29003KT 10SM CLR 11/11 A3010 RMK AO2 SLP194 T01110106 50005
KDIK - Dickinson, North Dakota, USA
Distance from station: W 95mi, 154km
Updated: Mon, 18-Jun-2018 3:56am CDT
Clear
Clear
 Wind from NW
Wind: NW 5 mph , 7 km/h
Temperature: 48°F , 9°C
Wind Chill: 46°F , 8°C
Dew Point: 46°F , 8°C
Humidity: 94%
Barometer: 30.13 inHg , 1020.3 hPa
Clouds: Clear
Visibility: 10 miles , 16 km
2018/06/18 08:56 KDIK 180856Z AUTO 31004KT 10SM CLR 09/08 A3013 RMK AO2 SLP202 T00940083 51005
 
KISN - Williston, North Dakota, USA
Distance from station: NNW 2mi, 2km
Updated: Mon, 18-Jun-2018 3:52am CDT
Clear
Clear
 Wind from calm
Wind: Calm
Temperature: 48°F , 9°C
Dew Point: 46°F , 8°C
Humidity: 94%
Barometer: 30.14 inHg , 1020.7 hPa
Clouds: Clear
Visibility: 10 miles , 16 km
2018/06/18 08:52 KISN 180852Z AUTO 00000KT 10SM CLR 09/08 A3014 RMK AO2 SLP207 T00940078 53009
KFAR - Fargo, North Dakota, USA
Distance from station: NNW 4mi, 7km
Updated: Mon, 18-Jun-2018 3:53am CDT
Clear
Clear
 Wind from N
Wind: N 9 mph , 15 km/h
Temperature: 61°F , 16°C
Dew Point: 54°F , 12°C
Humidity: 77%
Barometer: 30.01 inHg , 1016.3 hPa
Clouds: Clear
Visibility: 10 miles , 16 km
2018/06/18 08:53 KFAR 180853Z 01008KT 10SM CLR 16/12 A3001 RMK AO2 SLP162 T01610117 53005
 
KGFK - Grand Forks, North Dakota, USA
Distance from station: NNW 76mi, 123km
Updated: Mon, 18-Jun-2018 3:53am CDT
Clear
Clear
 Wind from NW
Wind: NW 7 mph , 11 km/h
Temperature: 52°F , 11°C
Dew Point: 52°F , 11°C
Humidity: 100%
Barometer: 30.04 inHg , 1017.3 hPa
Clouds: Clear
Visibility: 10 miles , 16 km
2018/06/18 08:53 KGFK 180853Z 31006KT 10SM CLR 11/11 A3004 RMK AO2 SLP174 T01060106 53009
KMOT - Minot, North Dakota, USA
Distance from station: E 109mi, 175km
Updated: Mon, 18-Jun-2018 3:54am CDT
Clear
Clear
 Wind from WSW
Wind: WSW 7 mph , 11 km/h
Temperature: 55°F , 13°C
Dew Point: 52°F , 11°C
Humidity: 88%
Barometer: 30.11 inHg , 1019.6 hPa
Clouds: Clear
Visibility: 10 miles , 16 km
2018/06/18 08:54 KMOT 180854Z AUTO 24006KT 10SM CLR 13/11 A3011 RMK AO2 SLP194 T01280111 51010